Time;durP1;ratioP1;P1;durP2;ratioP2;P2;SDS_P1;SDS_P2;PMS_P1;PMS_P2;Temp;Humidity;BMP_temperature;BMP_pressure;BME280_temperature;BME280_humidity;BME280_pressure;Samples;Min_cycle;Max_cycle;Signal;HPM_P1;HPM_P2
2022/08/20 00:01:23;;;;;;;17.80;3.72;;;;;;;27.27;nan;99806.34;4996795;28;20097;-69
2022/08/20 00:03:49;;;;;;;12.90;3.75;;;;;;;27.22;nan;99802.00;5014915;28;20068;-71
2022/08/20 00:06:18;;;;;;;19.17;3.58;;;;;;;27.20;nan;99800.78;5014606;28;20049;-71
2022/08/20 00:08:45;;;;;;;20.02;3.78;;;;;;;27.16;nan;99792.56;5011806;28;20038;-69
2022/08/20 00:11:13;;;;;;;14.38;3.78;;;;;;;27.14;nan;99781.31;5009160;28;20030;-70
2022/08/20 00:13:43;;;;;;;16.50;3.75;;;;;;;27.10;nan;99770.41;5005922;28;20052;-70
2022/08/20 00:16:11;;;;;;;18.33;4.10;;;;;;;27.05;nan;99778.03;4985855;28;20038;-69
2022/08/20 00:18:37;;;;;;;17.77;3.67;;;;;;;26.96;nan;99775.53;5007805;28;20032;-69
2022/08/20 00:21:07;;;;;;;16.15;4.15;;;;;;;26.97;nan;99797.91;4992411;28;20377;-70
2022/08/20 00:23:34;;;;;;;14.57;3.85;;;;;;;26.92;nan;99802.44;5004996;28;20475;-71
2022/08/20 00:26:00;;;;;;;18.60;4.20;;;;;;;26.89;nan;99842.91;5009750;28;20078;-70
2022/08/20 00:28:25;;;;;;;19.52;4.15;;;;;;;26.77;nan;99789.75;4988817;28;20041;-71
2022/08/20 00:30:50;;;;;;;19.35;4.25;;;;;;;26.83;nan;99749.72;5009511;28;20049;-70
2022/08/20 00:33:19;;;;;;;16.95;3.63;;;;;;;26.83;nan;99782.94;5007976;28;20101;-69
2022/08/20 00:35:49;;;;;;;21.02;4.43;;;;;;;26.77;nan;99776.22;5008366;28;20042;-70
2022/08/20 00:38:14;;;;;;;13.60;4.20;;;;;;;26.76;nan;99779.28;5006182;28;20034;-69
2022/08/20 00:40:48;;;;;;;19.67;4.55;;;;;;;26.71;nan;99766.81;4989367;28;20487;-70
2022/08/20 00:43:51;;;;;;;15.68;4.00;;;;;;;26.64;nan;99769.34;5007875;28;20038;-70
2022/08/20 00:46:23;;;;;;;19.83;3.90;;;;;;;26.59;nan;99756.09;4992303;28;20391;-69
2022/08/20 00:48:54;;;;;;;13.80;3.50;;;;;;;26.60;nan;99763.06;4991591;28;20948;-70
2022/08/20 00:51:29;;;;;;;16.52;4.03;;;;;;;26.55;nan;99747.91;5007344;28;20061;-70
2022/08/20 00:54:01;;;;;;;13.13;3.60;;;;;;;26.53;nan;99742.06;5000312;28;20046;-70
2022/08/20 00:56:27;;;;;;;11.93;4.07;;;;;;;26.46;nan;99737.25;5007003;28;20065;-70
2022/08/20 00:58:53;;;;;;;12.18;4.13;;;;;;;26.44;nan;99744.91;4991365;28;20034;-70
2022/08/20 01:01:21;;;;;;;13.93;3.67;;;;;;;26.44;nan;99781.94;5004226;28;20033;-70
2022/08/20 01:03:48;;;;;;;18.57;3.93;;;;;;;26.42;nan;99714.78;5001250;28;20074;-70
2022/08/20 01:06:14;;;;;;;17.73;3.72;;;;;;;26.39;nan;99693.88;5002633;28;20275;-69
2022/08/20 01:08:41;;;;;;;19.63;4.05;;;;;;;26.37;nan;99700.78;4991302;28;20523;-69
2022/08/20 01:11:14;;;;;;;16.80;4.55;;;;;;;;;;5003640;28;20030;-69
2022/08/20 01:13:41;;;;;;;12.93;3.65;;;;;;;26.33;nan;99684.47;5004430;28;20042;-70
2022/08/20 01:16:17;;;;;;;13.73;4.78;;;;;;;26.25;nan;99675.41;4992656;28;20117;-69
2022/08/20 01:18:45;;;;;;;16.60;3.75;;;;;;;26.22;nan;99700.41;5006513;28;20042;-70
2022/08/20 01:21:11;;;;;;;22.67;3.90;;;;;;;26.17;nan;99694.47;5008064;28;20380;-70
2022/08/20 01:23:42;;;;;;;17.25;3.47;;;;;;;26.20;nan;99699.97;4991877;28;20037;-69
2022/08/20 01:26:18;;;;;;;18.77;4.10;;;;;;;26.24;nan;99681.16;5007415;28;20049;-71
2022/08/20 01:29:02;;;;;;;14.38;3.35;;;;;;;26.19;nan;99652.50;5002586;28;20042;-69
2022/08/20 01:31:35;;;;;;;14.50;3.67;;;;;;;26.24;nan;99692.75;5004822;28;20049;-70
2022/08/20 01:34:03;;;;;;;15.68;3.70;;;;;;;26.21;nan;99709.63;5009037;28;20026;-70
2022/08/20 01:36:35;;;;;;;15.15;3.60;;;;;;;26.19;nan;99693.00;5007698;28;20045;-70
2022/08/20 01:39:05;;;;;;;9.82;3.35;;;;;;;26.22;nan;99672.66;5006175;28;20041;-70
2022/08/20 01:41:46;;;;;;;15.10;3.67;;;;;;;26.21;nan;99663.75;5006441;28;20030;-69
2022/08/20 01:44:12;;;;;;;16.65;3.78;;;;;;;26.18;nan;99647.47;5002301;28;20128;-70
2022/08/20 01:46:40;;;;;;;13.95;3.50;;;;;;;26.20;nan;99664.09;5006825;28;20117;-69
2022/08/20 01:49:30;;;;;;;19.20;3.75;;;;;;;26.19;nan;99690.28;5006062;28;20113;-70
2022/08/20 01:52:07;;;;;;;13.20;3.83;;;;;;;26.19;nan;99698.38;4994924;28;20095;-69
2022/08/20 01:54:33;;;;;;;20.08;3.88;;;;;;;26.16;nan;99706.41;5004401;28;20045;-70
2022/08/20 01:57:02;;;;;;;12.35;3.60;;;;;;;26.19;nan;99727.28;5009199;28;20042;-70
2022/08/20 01:59:28;;;;;;;17.25;3.60;;;;;;;26.10;nan;99720.16;5009061;28;20045;-69
2022/08/20 02:01:55;;;;;;;12.70;3.47;;;;;;;26.00;nan;99736.06;5009202;28;20099;-70
2022/08/20 02:04:20;;;;;;;18.58;3.80;;;;;;;25.98;nan;99695.13;5004893;28;20103;-70
2022/08/20 02:06:50;;;;;;;15.25;4.18;;;;;;;25.98;nan;99701.34;5009254;28;20495;-70
2022/08/20 02:09:16;;;;;;;14.02;4.07;;;;;;;26.01;nan;99721.44;5006117;28;20058;-70
2022/08/20 02:11:42;;;;;;;20.40;3.92;;;;;;;25.98;nan;99642.00;4991140;28;20046;-70
2022/08/20 02:14:10;;;;;;;11.95;4.07;;;;;;;26.01;nan;99627.78;5008386;28;20030;-70
2022/08/20 02:16:38;;;;;;;17.23;4.35;;;;;;;26.04;nan;99693.75;5007736;28;20069;-70
2022/08/20 02:19:11;;;;;;;13.48;4.25;;;;;;;26.04;nan;99691.84;4990450;28;20030;-70
2022/08/20 02:21:42;;;;;;;14.50;4.47;;;;;;;26.00;nan;99682.91;5008931;28;20041;-71
2022/08/20 02:24:08;;;;;;;18.50;4.20;;;;;;;25.98;nan;99668.16;4994475;28;20088;-70
2022/08/20 02:26:36;;;;;;;14.43;4.05;;;;;;;25.89;nan;99660.25;5006848;28;20038;-70
2022/08/20 02:29:07;;;;;;;19.17;4.50;;;;;;;25.89;nan;99673.72;5012314;28;20045;-70
2022/08/20 02:31:35;;;;;;;16.38;4.22;;;;;;;25.87;nan;99674.06;4997466;28;20044;-70
2022/08/20 02:34:02;;;;;;;18.10;4.22;;;;;;;25.78;nan;99696.91;5009392;28;20117;-71
2022/08/20 02:36:27;;;;;;;10.40;4.25;;;;;;;25.65;nan;99683.47;5010150;28;20369;-70
2022/08/20 02:38:53;;;;;;;18.88;4.95;;;;;;;25.56;nan;99719.81;5010394;28;20088;-70
2022/08/20 02:41:20;;;;;;;17.55;4.50;;;;;;;25.45;nan;99673.66;5007688;28;20050;-70
2022/08/20 02:43:46;;;;;;;12.23;4.60;;;;;;;25.35;nan;99618.31;5012104;28;20495;-70
2022/08/20 02:46:14;;;;;;;26.17;5.38;;;;;;;25.38;nan;99654.59;5010861;28;20042;-70
2022/08/20 02:48:40;;;;;;;17.13;4.88;;;;;;;25.29;nan;99662.06;5008470;28;20112;-70
2022/08/20 02:51:07;;;;;;;21.27;5.15;;;;;;;25.22;nan;99643.78;5012976;28;20042;-70
2022/08/20 02:53:36;;;;;;;23.23;5.78;;;;;;;25.12;nan;99628.06;5011466;28;20029;-70
2022/08/20 02:56:02;;;;;;;;;;;;;;;24.99;nan;99640.75;5010262;28;20037;-69
2022/08/20 02:58:28;;;;;;;17.75;5.53;;;;;;;24.88;nan;99624.28;5010607;28;19917;-70
2022/08/20 03:00:55;;;;;;;15.20;5.70;;;;;;;24.77;nan;99667.03;5012064;28;20041;-71
2022/08/20 03:03:21;;;;;;;26.15;6.05;;;;;;;24.66;nan;99646.28;5010947;28;20116;-68
2022/08/20 03:05:49;;;;;;;28.92;5.45;;;;;;;24.61;nan;99652.69;5008894;28;20385;-71
2022/08/20 03:08:15;;;;;;;25.52;5.40;;;;;;;24.52;nan;99590.91;4992709;28;20121;-69
2022/08/20 03:10:43;;;;;;;22.85;5.68;;;;;;;24.54;nan;99647.91;4993180;28;20033;-68
2022/08/20 03:13:11;;;;;;;25.48;5.72;;;;;;;24.45;nan;99660.66;5011151;28;20058;-68
2022/08/20 03:15:39;;;;;;;21.33;6.00;;;;;;;24.46;nan;99631.81;5008077;28;20484;-68
2022/08/20 03:18:04;;;;;;;22.57;5.53;;;;;;;24.36;nan;99565.78;5006970;28;20034;-70
2022/08/20 03:20:30;;;;;;;26.75;5.60;;;;;;;24.32;nan;99635.63;4992997;28;20558;-69
2022/08/20 03:22:56;;;;;;;23.13;5.80;;;;;;;24.26;nan;99628.13;5009504;28;20038;-68
2022/08/20 03:25:22;;;;;;;19.00;5.25;;;;;;;24.18;nan;99651.28;4994352;28;20133;-68
2022/08/20 03:27:48;;;;;;;22.23;6.10;;;;;;;24.08;nan;99620.25;5012024;28;20103;-68
2022/08/20 03:30:15;;;;;;;24.00;6.22;;;;;;;24.08;nan;99652.50;4992018;28;20042;-68
2022/08/20 03:32:42;;;;;;;24.63;6.63;;;;;;;24.03;nan;99654.66;5008266;28;20026;-69
2022/08/20 03:35:10;;;;;;;19.55;5.85;;;;;;;23.93;nan;99656.63;5006473;28;20041;-69
2022/08/20 03:37:37;;;;;;;26.25;6.13;;;;;;;23.91;nan;99647.34;5007714;28;20490;-68
2022/08/20 03:40:06;;;;;;;15.48;6.05;;;;;;;23.86;nan;99628.72;5005365;28;20034;-68
2022/08/20 03:42:31;;;;;;;20.50;6.03;;;;;;;23.77;nan;99661.84;5008394;28;20482;-68
2022/08/20 03:44:57;;;;;;;20.98;6.07;;;;;;;23.75;nan;99664.09;4983984;28;20030;-69
2022/08/20 03:47:22;;;;;;;20.90;6.68;;;;;;;23.74;nan;99697.47;4986479;28;20037;-69
2022/08/20 03:49:48;;;;;;;16.10;5.82;;;;;;;23.77;nan;99688.72;5007943;28;20033;-69
2022/08/20 03:52:14;;;;;;;20.90;6.18;;;;;;;23.76;nan;99660.28;5006103;28;20048;-69
2022/08/20 03:54:40;;;;;;;19.00;6.10;;;;;;;23.85;nan;99729.31;5007866;28;20060;-70
2022/08/20 03:57:12;;;;;;;19.77;7.10;;;;;;;23.86;nan;99718.22;5008823;28;20065;-69
2022/08/20 03:59:37;;;;;;;17.00;6.38;;;;;;;23.91;nan;99725.31;5008372;28;20030;-68
2022/08/20 04:02:02;;;;;;;15.35;6.10;;;;;;;23.89;nan;99706.03;5005969;28;20079;-68
2022/08/20 04:04:28;;;;;;;18.40;5.95;;;;;;;23.86;nan;99731.69;4993036;28;20396;-68
2022/08/20 04:06:54;;;;;;;12.95;5.88;;;;;;;23.91;nan;99720.72;5005183;28;20092;-69
2022/08/20 04:09:19;;;;;;;29.50;7.65;;;;;;;23.90;nan;99729.13;5005510;28;20514;-69
2022/08/20 04:11:45;;;;;;;14.52;6.60;;;;;;;23.88;nan;99777.84;4987987;28;20043;-68
2022/08/20 04:14:11;;;;;;;18.35;6.90;;;;;;;23.87;nan;99781.66;5010408;28;20033;-68
2022/08/20 04:16:38;;;;;;;19.65;6.50;;;;;;;23.84;nan;99744.66;5003320;28;20602;-69
2022/08/20 04:19:03;;;;;;;18.58;6.00;;;;;;;23.86;nan;99800.81;4992904;28;20036;-68
2022/08/20 04:21:30;;;;;;;20.73;6.45;;;;;;;23.90;nan;99761.41;5004984;28;20041;-70
2022/08/20 04:23:56;;;;;;;21.75;6.70;;;;;;;23.88;nan;99745.59;5004017;28;20545;-69
2022/08/20 04:26:22;;;;;;;12.45;5.60;;;;;;;23.89;nan;99773.25;5006935;28;20495;-69
2022/08/20 04:28:48;;;;;;;12.75;6.10;;;;;;;23.89;nan;99789.38;5008841;28;20034;-69
2022/08/20 04:31:16;;;;;;;15.43;6.43;;;;;;;23.89;nan;99767.88;5004749;28;20107;-69
2022/08/20 04:33:42;;;;;;;17.40;6.05;;;;;;;23.90;nan;99781.00;5001753;28;20065;-68
2022/08/20 04:36:08;;;;;;;16.52;7.65;;;;;;;;;;5000598;28;20179;-68
2022/08/20 04:38:33;;;;;;;25.83;9.25;;;;;;;23.93;nan;99756.13;4965539;28;20141;-68
2022/08/20 04:40:59;;;;;;;22.42;9.90;;;;;;;23.91;nan;99774.50;5002785;28;20101;-69
2022/08/20 04:43:27;;;;;;;22.70;8.98;;;;;;;23.96;nan;99763.53;5001547;28;20120;-69
2022/08/20 04:45:54;;;;;;;19.27;7.55;;;;;;;23.98;nan;99772.06;5002965;28;20511;-69
2022/08/20 04:48:22;;;;;;;14.77;6.78;;;;;;;24.01;nan;99789.44;4989508;28;20463;-69
2022/08/20 04:50:48;;;;;;;27.92;7.13;;;;;;;24.02;nan;99774.91;5004339;28;20068;-70
2022/08/20 04:53:16;;;;;;;15.80;6.75;;;;;;;24.04;nan;99806.81;5006147;28;20057;-69
2022/08/20 04:55:44;;;;;;;26.48;6.72;;;;;;;23.91;nan;99742.22;4982074;28;20730;-69
2022/08/20 04:58:19;;;;;;;20.13;6.32;;;;;;;24.04;nan;99825.66;5002706;28;20112;-69
2022/08/20 05:00:50;;;;;;;21.77;6.07;;;;;;;24.06;nan;99800.00;5002132;28;20041;-68
2022/08/20 05:03:16;;;;;;;23.48;6.68;;;;;;;24.06;nan;99815.34;5003004;28;20132;-70
2022/08/20 05:05:44;;;;;;;32.20;6.90;;;;;;;24.11;nan;99810.56;4986969;28;20077;-69
2022/08/20 05:08:11;;;;;;;26.35;6.28;;;;;;;24.09;nan;99783.22;5001681;28;20539;-70
2022/08/20 05:10:37;;;;;;;20.50;6.72;;;;;;;24.10;nan;99795.53;5002522;28;20083;-69
2022/08/20 05:13:03;;;;;;;30.23;8.00;;;;;;;24.09;nan;99852.38;5006891;28;20034;-69
2022/08/20 05:15:28;;;;;;;18.13;7.38;;;;;;;24.24;nan;99797.94;5006964;28;20033;-70
2022/08/20 05:18:04;;;;;;;24.40;7.22;;;;;;;24.17;nan;99797.69;4990030;28;20091;-71
2022/08/20 05:20:33;;;;;;;32.95;8.00;;;;;;;24.23;nan;99828.66;5003311;28;20042;-70
2022/08/20 05:23:00;;;;;;;24.08;6.95;;;;;;;24.41;nan;99853.50;5007078;28;20384;-70
2022/08/20 05:25:29;;;;;;;25.95;6.88;;;;;;;24.45;nan;99851.72;5006158;28;20034;-71
2022/08/20 05:28:11;;;;;;;20.10;6.72;;;;;;;24.49;nan;99822.25;5003316;28;20034;-70
2022/08/20 05:30:40;;;;;;;22.15;6.28;;;;;;;24.54;nan;99878.56;5007294;28;20100;-70
2022/08/20 05:33:08;;;;;;;32.58;6.57;;;;;;;24.58;nan;99882.97;4986196;28;20031;-70
2022/08/20 05:35:37;;;;;;;27.77;9.27;;;;;;;24.65;nan;99852.03;5008543;28;20121;-70
2022/08/20 05:38:04;;;;;;;28.48;9.13;;;;;;;24.69;nan;99842.19;4992744;28;20053;-70
2022/08/20 05:40:30;;;;;;;28.40;6.60;;;;;;;24.78;nan;99840.16;5007875;28;20084;-70
2022/08/20 05:42:55;;;;;;;30.60;6.70;;;;;;;24.82;nan;99817.63;5009816;28;20034;-70
2022/08/20 05:45:21;;;;;;;38.05;8.57;;;;;;;24.92;nan;99862.19;4990109;28;20125;-69
2022/08/20 05:47:47;;;;;;;27.00;7.40;;;;;;;24.98;nan;99836.63;5007726;28;20053;-70
2022/08/20 05:50:15;;;;;;;21.63;6.70;;;;;;;25.14;nan;99844.81;5008855;28;20542;-70
2022/08/20 05:52:41;;;;;;;24.15;5.38;;;;;;;25.22;nan;99897.84;5013175;28;20029;-69
2022/08/20 05:55:09;;;;;;;11.65;5.20;;;;;;;25.33;nan;99867.75;5009066;28;20468;-70
2022/08/20 05:57:35;;;;;;;15.02;5.20;;;;;;;25.38;nan;99829.78;5010535;28;20030;-70
2022/08/20 06:00:04;;;;;;;21.73;5.65;;;;;;;25.47;nan;99860.09;5012374;28;20036;-70
2022/08/20 06:05:14;;;;;;;14.18;4.93;;;;;;;25.53;nan;99858.75;5010282;28;20042;-70
2022/08/20 06:07:40;;;;;;;15.63;5.03;;;;;;;25.58;nan;99836.97;5009070;28;20034;-70
2022/08/20 06:10:07;;;;;;;19.30;5.95;;;;;;;25.66;nan;99825.25;5007997;28;20033;-69
2022/08/20 06:12:33;;;;;;;18.58;5.28;;;;;;;25.77;nan;99862.56;5009857;28;20029;-69
2022/08/20 06:14:59;;;;;;;17.33;5.15;;;;;;;25.84;nan;99752.19;5009670;28;20506;-69
2022/08/20 06:17:24;;;;;;;19.92;6.45;;;;;;;25.94;nan;99796.78;5008619;28;20124;-70
2022/08/20 06:19:50;;;;;;;18.70;5.20;;;;;;;26.02;nan;99812.81;5004823;28;20125;-70
2022/08/20 06:22:16;;;;;;;17.33;5.05;;;;;;;26.11;nan;99815.38;4991248;28;20042;-70
2022/08/20 06:24:42;;;;;;;16.83;5.60;;;;;;;26.16;nan;99806.25;5009203;28;20037;-71
2022/08/20 06:27:11;;;;;;;15.85;5.00;;;;;;;26.21;nan;99808.69;4994778;28;20034;-69
2022/08/20 06:29:37;;;;;;;14.55;4.97;;;;;;;26.23;nan;99811.84;5012049;28;20073;-70
2022/08/20 06:32:02;;;;;;;15.18;5.07;;;;;;;26.25;nan;99853.56;5010791;28;20471;-69
2022/08/20 06:34:28;;;;;;;13.52;5.30;;;;;;;26.36;nan;99799.84;4989478;28;20042;-70
2022/08/20 06:36:54;;;;;;;14.70;5.20;;;;;;;26.41;nan;99815.00;5009350;28;20049;-71
2022/08/20 06:39:20;;;;;;;11.75;5.00;;;;;;;26.51;nan;99782.13;4993829;28;20040;-70
2022/08/20 06:41:45;;;;;;;12.40;5.35;;;;;;;26.48;nan;99770.09;5009594;28;20125;-69
2022/08/20 06:44:11;;;;;;;12.73;5.55;;;;;;;26.61;nan;99743.03;5009321;28;20466;-69
2022/08/20 06:46:37;;;;;;;18.25;5.15;;;;;;;26.70;nan;99795.75;5009560;28;20037;-69
2022/08/20 06:49:04;;;;;;;17.50;5.25;;;;;;;26.74;nan;99793.13;5010406;28;20112;-68
2022/08/20 06:51:30;;;;;;;19.10;5.03;;;;;;;26.75;nan;99827.13;5006660;28;20137;-69
2022/08/20 06:53:55;;;;;;;19.65;5.20;;;;;;;26.86;nan;99840.88;5008577;28;20026;-69
2022/08/20 06:56:21;;;;;;;18.95;5.25;;;;;;;26.94;nan;99799.41;5007650;28;20045;-69
2022/08/20 06:58:48;;;;;;;19.50;5.43;;;;;;;26.99;nan;99823.47;5006292;28;20025;-69
2022/08/20 07:01:13;;;;;;;14.52;5.25;;;;;;;27.05;nan;99853.69;4966100;28;20069;-68
2022/08/20 07:03:41;;;;;;;12.85;5.22;;;;;;;27.10;nan;99819.06;5005173;28;20464;-67
2022/08/20 07:06:07;;;;;;;16.02;4.90;;;;;;;27.11;nan;99814.47;5008839;28;20143;-68
2022/08/20 07:08:34;;;;;;;17.13;4.30;;;;;;;27.19;nan;99832.44;4989875;28;20088;-68
2022/08/20 07:11:00;;;;;;;13.93;4.68;;;;;;;27.19;nan;99881.09;5005210;28;20045;-69
2022/08/20 07:13:25;;;;;;;12.68;4.45;;;;;;;27.35;nan;99843.25;4993148;28;20408;-68
2022/08/20 07:15:51;;;;;;;15.38;5.05;;;;;;;27.42;nan;99839.91;5007468;28;20151;-68
2022/08/20 07:18:16;;;;;;;9.73;4.10;;;;;;;27.52;nan;99844.78;5007430;28;20499;-69
2022/08/20 07:20:42;;;;;;;16.67;4.75;;;;;;;27.60;nan;99845.72;5009386;28;20053;-70
2022/08/20 07:23:10;;;;;;;17.65;4.85;;;;;;;27.64;nan;99838.47;5007687;28;20569;-69
2022/08/20 07:25:37;;;;;;;14.30;4.50;;;;;;;27.66;nan;99836.19;5010204;28;20052;-72
2022/08/20 07:28:07;;;;;;;13.75;4.60;;;;;;;27.78;nan;99853.06;5008194;28;20037;-71
2022/08/20 07:33:18;;;;;;;14.25;4.80;;;;;;;27.89;nan;99872.25;5003739;28;20109;-71
2022/08/20 07:35:47;;;;;;;35.30;11.73;;;;;;;27.94;nan;99882.03;5002013;28;20583;-70
2022/08/20 07:38:23;;;;;;;;;;;;;;;28.05;nan;99869.50;5006168;28;20056;-71
2022/08/20 07:40:57;;;;;;;10.43;4.22;;;;;;;28.15;nan;99887.09;5002335;28;20390;-70
2022/08/20 07:43:24;;;;;;;14.88;5.32;;;;;;;28.23;nan;99893.44;5005774;28;20033;-69
2022/08/20 07:45:55;;;;;;;15.80;5.63;;;;;;;28.34;nan;99883.59;5007314;28;20076;-70
2022/08/20 07:48:27;;;;;;;14.27;5.75;;;;;;;28.38;nan;99871.69;5005828;28;20022;-70
2022/08/20 07:50:54;;;;;;;14.63;4.75;;;;;;;28.46;nan;99891.59;5008053;28;20030;-70
2022/08/20 07:53:20;;;;;;;18.50;5.20;;;;;;;28.53;nan;99888.25;5006799;28;20022;-70
2022/08/20 07:55:45;;;;;;;11.65;5.40;;;;;;;28.58;nan;99877.13;5006590;28;20042;-69
2022/08/20 07:58:14;;;;;;;16.63;5.03;;;;;;;28.73;nan;99897.13;5005391;28;20044;-70
2022/08/20 08:00:40;;;;;;;;;;;;;;;28.77;nan;99877.06;5008594;28;20037;-69
2022/08/20 08:03:06;;;;;;;17.30;5.55;;;;;;;28.80;nan;99894.53;5002816;28;19936;-70
2022/08/20 08:05:34;;;;;;;13.68;5.07;;;;;;;28.85;nan;99883.41;4979180;28;20034;-71
2022/08/20 08:08:01;;;;;;;13.20;5.72;;;;;;;28.91;nan;99900.16;5001272;28;20474;-71
2022/08/20 08:10:27;;;;;;;12.65;4.63;;;;;;;28.96;nan;99905.28;4985648;28;20038;-70
2022/08/20 08:12:56;;;;;;;15.23;5.22;;;;;;;28.90;nan;99877.69;5005232;28;20547;-71
2022/08/20 08:15:27;;;;;;;15.95;5.35;;;;;;;29.05;nan;99911.25;5007827;28;20101;-71
2022/08/20 08:17:55;;;;;;;15.82;5.28;;;;;;;29.09;nan;99911.31;5001757;28;20065;-71
2022/08/20 08:20:22;;;;;;;18.80;5.40;;;;;;;29.09;nan;99898.53;4977456;28;20361;-70
2022/08/20 08:22:47;;;;;;;17.08;4.55;;;;;;;29.20;nan;99933.97;5001124;28;20468;-70
2022/08/20 08:25:15;;;;;;;14.05;4.72;;;;;;;29.20;nan;99951.03;4985512;28;20044;-69
2022/08/20 08:27:41;;;;;;;12.80;5.00;;;;;;;29.20;nan;99942.13;4983706;28;20384;-70
2022/08/20 08:30:08;;;;;;;13.85;4.38;;;;;;;29.27;nan;99934.09;4998734;28;20038;-71
2022/08/20 08:33:26;;;;;;;14.45;5.07;;;;;;;29.30;nan;99929.88;4998043;28;20064;-71
2022/08/20 08:35:23;;;;;;;13.95;4.90;;;;;;;29.30;nan;99927.16;5001717;28;20096;-70
2022/08/20 08:37:49;;;;;;;17.67;4.80;;;;;;;29.33;nan;99946.22;4998377;28;20427;-71
2022/08/20 08:40:14;;;;;;;12.40;4.32;;;;;;;29.33;nan;99953.53;5003584;28;20530;-70
2022/08/20 08:42:49;;;;;;;14.75;4.25;;;;;;;29.24;nan;99992.56;5002657;28;20040;-71
2022/08/20 08:45:16;;;;;;;11.93;4.63;;;;;;;29.16;nan;99909.50;5002922;28;20038;-72
2022/08/20 08:47:44;;;;;;;9.50;4.32;;;;;;;29.11;nan;99936.16;5000477;28;20034;-71
2022/08/20 08:50:21;;;;;;;18.98;5.22;;;;;;;28.82;nan;100000.66;5001443;28;20041;-72
2022/08/20 08:52:52;;;;;;;12.30;4.57;;;;;;;28.47;nan;99947.34;4985896;28;20095;-71
2022/08/20 08:55:20;;;;;;;15.48;5.38;;;;;;;28.49;nan;99958.59;4980379;28;20038;-72
2022/08/20 08:57:48;;;;;;;12.68;5.40;;;;;;;28.43;nan;100011.47;5000492;28;20033;-72
2022/08/20 09:00:17;;;;;;;18.23;5.63;;;;;;;28.39;nan;99949.09;5003277;28;20060;-71
2022/08/20 09:03:01;;;;;;;17.50;5.85;;;;;;;28.22;nan;99933.25;4997142;28;20031;-70
2022/08/20 09:05:37;;;;;;;19.10;6.30;;;;;;;28.07;nan;99934.13;4998282;28;20037;-70
2022/08/20 09:08:05;;;;;;;15.57;5.68;;;;;;;27.12;nan;99907.91;4987291;28;20029;-71
2022/08/20 09:10:31;;;;;;;11.52;6.05;;;;;;;27.01;nan;99913.06;4996201;28;20033;-72
2022/08/20 09:12:57;;;;;;;15.13;5.80;;;;;;;26.98;nan;99902.94;5000254;28;20036;-71
2022/08/20 09:15:22;;;;;;;18.08;5.97;;;;;;;26.84;nan;99894.47;4984756;28;20038;-71
2022/08/20 09:17:48;;;;;;;17.50;6.57;;;;;;;26.91;nan;99906.25;5006579;28;21976;-71
2022/08/20 09:20:13;;;;;;;16.67;6.45;;;;;;;27.02;nan;99886.81;5001019;28;20044;-70
2022/08/20 09:22:39;;;;;;;17.80;5.93;;;;;;;26.84;nan;99897.97;5004921;28;20103;-71
2022/08/20 09:25:05;;;;;;;10.23;5.70;;;;;;;26.81;nan;99904.03;4978362;28;20492;-71
2022/08/20 09:27:31;;;;;;;16.75;5.85;;;;;;;26.73;nan;99905.00;5001582;28;20049;-71
2022/08/20 09:29:56;;;;;;;15.40;5.95;;;;;;;26.56;nan;99891.81;4977912;28;20050;-70
2022/08/20 09:32:23;;;;;;;14.82;5.88;;;;;;;26.60;nan;99906.19;4978937;28;20155;-71
2022/08/20 09:34:54;;;;;;;15.98;6.13;;;;;;;26.70;nan;99924.63;4998387;28;20140;-71
2022/08/20 09:37:21;;;;;;;14.07;5.75;;;;;;;26.79;nan;99930.63;4996679;28;20030;-72
2022/08/20 09:39:47;;;;;;;15.25;6.43;;;;;;;26.73;nan;99916.59;4997784;28;20041;-71
2022/08/20 09:42:17;;;;;;;18.23;6.30;;;;;;;26.58;nan;99928.16;5000483;28;20061;-72
2022/08/20 09:44:43;;;;;;;17.55;5.55;;;;;;;26.32;nan;99939.34;5001783;28;20041;-71
2022/08/20 09:47:09;;;;;;;17.65;6.22;;;;;;;;;;5003604;28;20495;-71
2022/08/20 09:49:38;;;;;;;17.45;7.05;;;;;;;26.28;nan;99984.34;5003788;28;20026;-71
2022/08/20 09:52:07;;;;;;;15.38;5.95;;;;;;;26.18;nan;99977.50;4992260;28;20049;-70
2022/08/20 09:54:36;;;;;;;20.58;6.57;;;;;;;26.12;nan;99948.38;4990286;28;20056;-72
2022/08/20 09:57:04;;;;;;;13.18;6.43;;;;;;;25.96;nan;99984.16;4987987;28;20038;-72
2022/08/20 09:59:31;;;;;;;24.00;6.97;;;;;;;26.05;nan;100013.72;4988961;28;20498;-72
2022/08/20 10:01:57;;;;;;;24.67;7.10;;;;;;;26.09;nan;100058.56;5007380;28;20045;-71
2022/08/20 10:04:22;;;;;;;17.92;7.15;;;;;;;26.02;nan;100106.13;5003860;28;20023;-72
2022/08/20 10:06:48;;;;;;;19.75;6.70;;;;;;;25.86;nan;100103.31;5006701;28;20030;-73
2022/08/20 10:09:14;;;;;;;20.88;7.28;;;;;;;25.86;nan;100119.50;5003297;28;20392;-70
2022/08/20 10:11:39;;;;;;;16.10;7.47;;;;;;;25.72;nan;100141.34;5008989;28;20034;-70
2022/08/20 10:14:06;;;;;;;16.48;7.38;;;;;;;25.63;nan;100109.06;4985964;28;20101;-71
2022/08/20 10:16:32;;;;;;;15.85;7.53;;;;;;;25.51;nan;100084.78;5008045;28;20038;-72
2022/08/20 10:18:57;;;;;;;21.15;7.38;;;;;;;25.41;nan;100096.00;4993408;28;20036;-71
2022/08/20 10:21:23;;;;;;;20.00;7.57;;;;;;;25.25;nan;100109.28;5006909;28;20464;-72
2022/08/20 10:23:48;;;;;;;19.20;7.32;;;;;;;25.04;nan;100136.19;4990278;28;20045;-72
2022/08/20 10:26:15;;;;;;;18.42;7.95;;;;;;;24.90;nan;100176.06;4984911;28;20030;-72
2022/08/20 10:28:41;;;;;;;24.55;8.32;;;;;;;24.69;nan;100127.59;5004402;28;20045;-72
2022/08/20 10:31:08;;;;;;;23.25;9.43;;;;;;;24.57;nan;100141.75;5011321;28;20056;-72
2022/08/20 10:33:35;;;;;;;22.85;10.48;;;;;;;24.45;nan;100155.88;4995824;28;20496;-74
2022/08/20 10:36:09;;;;;;;21.25;10.70;;;;;;;24.30;nan;100170.66;4991298;28;20045;-73
2022/08/20 10:38:34;;;;;;;27.42;9.20;;;;;;;24.13;nan;100151.88;5009681;28;20044;-71
2022/08/20 10:41:00;;;;;;;22.65;9.30;;;;;;;24.03;nan;100189.88;5011052;28;20059;-72
2022/08/20 10:43:25;;;;;;;23.77;9.00;;;;;;;23.92;nan;100186.72;5013328;28;20041;-70
2022/08/20 10:45:51;;;;;;;22.20;8.15;;;;;;;23.72;nan;100188.16;5005026;28;20197;-71
2022/08/20 10:48:16;;;;;;;24.80;9.60;;;;;;;23.26;nan;100127.81;4990285;28;20057;-71
2022/08/20 10:50:42;;;;;;;26.98;9.70;;;;;;;23.28;nan;100136.34;5010454;28;20125;-70
2022/08/20 10:53:07;;;;;;;27.73;9.82;;;;;;;23.31;nan;100166.03;5012063;28;20427;-69
2022/08/20 10:55:33;;;;;;;25.77;8.88;;;;;;;23.17;nan;100129.69;5010912;28;20036;-70
2022/08/20 10:57:58;;;;;;;18.70;7.72;;;;;;;23.00;nan;100104.41;4993559;28;20436;-70
2022/08/20 11:00:24;;;;;;;22.45;8.93;;;;;;;22.58;nan;100116.63;5012426;28;20547;-71
2022/08/20 11:02:50;;;;;;;16.50;7.72;;;;;;;22.30;nan;100109.63;4994127;28;20432;-70
2022/08/20 11:05:16;;;;;;;27.40;6.90;;;;;;;22.26;nan;100143.53;5006270;28;20030;-72
2022/08/20 11:07:43;;;;;;;15.70;7.75;;;;;;;22.23;nan;100117.31;4990860;28;20045;-72
2022/08/20 11:10:09;;;;;;;15.85;6.35;;;;;;;22.21;nan;100127.56;5007215;28;20125;-71
2022/08/20 11:12:34;;;;;;;16.90;7.00;;;;;;;22.08;nan;100090.91;5007708;28;20037;-69
2022/08/20 11:15:00;;;;;;;17.75;7.35;;;;;;;21.96;nan;100112.91;5006303;28;20030;-71
2022/08/20 11:17:29;;;;;;;23.35;8.32;;;;;;;21.98;nan;100101.88;5007166;28;20037;-71
2022/08/20 11:19:56;;;;;;;15.20;7.93;;;;;;;21.93;nan;100083.25;4992039;28;20045;-71
2022/08/20 11:22:21;;;;;;;23.23;9.05;;;;;;;21.82;nan;100078.16;4990090;28;20050;-73
2022/08/20 11:24:47;;;;;;;21.33;8.20;;;;;;;21.71;nan;100071.47;4993683;28;20034;-71
2022/08/20 11:27:26;;;;;;;15.13;8.00;;;;;;;21.65;nan;100057.41;5011457;28;20033;-71
2022/08/20 11:29:52;;;;;;;16.60;8.50;;;;;;;21.53;nan;100033.09;5002142;28;20051;-70
2022/08/20 11:32:18;;;;;;;22.42;9.07;;;;;;;21.40;nan;100017.88;5006404;28;20054;-72
2022/08/20 11:34:43;;;;;;;20.15;8.25;;;;;;;21.44;nan;99970.63;4989135;28;20396;-70
2022/08/20 11:37:10;;;;;;;19.75;8.35;;;;;;;21.22;nan;100000.88;4988966;28;20073;-71
2022/08/20 11:39:36;;;;;;;20.30;8.57;;;;;;;21.16;nan;100018.16;5009108;28;20033;-71
2022/08/20 11:42:02;;;;;;;16.98;7.95;;;;;;;21.15;nan;99934.38;5011317;28;20137;-72
2022/08/20 11:44:27;;;;;;;19.20;8.95;;;;;;;;;;5009231;28;20396;-73
2022/08/20 11:46:53;;;;;;;24.88;8.90;;;;;;;21.16;nan;99948.53;5009515;28;20080;-72
2022/08/20 11:49:18;;;;;;;21.13;8.52;;;;;;;21.16;nan;99930.59;5004794;28;20041;-71
2022/08/20 11:51:43;;;;;;;21.85;9.10;;;;;;;;;;5008116;28;20050;-72